createdAt,value
2023-01-27T00:00:39.446Z,62.26
2023-01-27T00:03:06.846Z,61.98
2023-01-27T00:05:33.841Z,62.16
2023-01-27T00:08:00.650Z,62.16
2023-01-27T00:10:27.360Z,61.08
2023-01-27T00:13:12.585Z,62.01
2023-01-27T00:15:39.754Z,62.01
2023-01-27T00:18:07.069Z,61.95
2023-01-27T00:20:52.852Z,62.10
2023-01-27T00:23:44.108Z,62.31
2023-01-27T00:26:14.153Z,62.07
2023-01-27T00:28:41.631Z,62.30
2023-01-27T00:31:28.859Z,62.49
2023-01-27T00:33:56.328Z,62.42
2023-01-27T00:36:23.017Z,62.22
2023-01-27T00:38:49.589Z,62.37
2023-01-27T00:41:19.611Z,62.22
2023-01-27T00:43:47.583Z,62.32
2023-01-27T00:46:15.233Z,62.53
2023-01-27T00:48:41.947Z,62.41
2023-01-27T00:51:08.727Z,62.29
2023-01-27T00:53:35.446Z,61.43
2023-01-27T00:56:02.381Z,62.33
2023-01-27T00:58:29.943Z,62.43
2023-01-27T01:01:08.226Z,62.00
2023-01-27T01:03:41.140Z,62.02
2023-01-27T01:06:10.702Z,62.46
2023-01-27T01:08:38.524Z,62.29
2023-01-27T01:11:06.496Z,62.19
2023-01-27T01:13:33.920Z,62.28
2023-01-27T01:16:08.841Z,62.15
2023-01-27T01:18:35.522Z,62.59
2023-01-27T01:21:02.256Z,62.17
2023-01-27T01:23:29.350Z,62.51
2023-01-27T01:25:57.672Z,62.50
2023-01-27T01:28:25.235Z,62.57
2023-01-27T01:30:52.440Z,62.39
2023-01-27T01:33:20.135Z,62.20
2023-01-27T01:35:46.719Z,62.36
2023-01-27T01:38:13.673Z,62.26
2023-01-27T01:40:44.573Z,62.23
2023-01-27T01:43:14.882Z,62.65
2023-01-27T01:45:54.967Z,62.13
2023-01-27T01:48:37.637Z,62.16
2023-01-27T01:51:11.769Z,62.41
2023-01-27T01:53:43.915Z,62.46
2023-01-27T01:56:15.306Z,62.32
2023-01-27T01:58:44.644Z,62.26
2023-01-27T02:01:14.365Z,62.14
2023-01-27T02:03:45.204Z,62.48
2023-01-27T02:06:12.105Z,62.10
2023-01-27T02:08:42.331Z,62.14
2023-01-27T02:11:09.905Z,62.49
2023-01-27T02:13:36.807Z,62.33
2023-01-27T02:16:03.640Z,62.42
2023-01-27T02:18:30.481Z,62.42
2023-01-27T02:20:56.892Z,61.31
2023-01-27T02:23:27.932Z,62.05
2023-01-27T02:26:22.754Z,62.24
2023-01-27T02:29:02.892Z,62.07
2023-01-27T02:31:29.570Z,62.53
2023-01-27T02:33:59.831Z,61.24
2023-01-27T02:36:28.992Z,62.40
2023-01-27T02:38:57.301Z,62.41
2023-01-27T02:41:35.301Z,62.34
2023-01-27T02:44:02.085Z,62.54
2023-01-27T02:46:28.693Z,61.46
2023-01-27T02:48:55.366Z,62.36
2023-01-27T02:51:21.902Z,62.59
2023-01-27T02:53:48.512Z,62.67
2023-01-27T02:56:15.073Z,62.54
2023-01-27T02:58:41.638Z,62.44
2023-01-27T03:01:08.539Z,62.70
2023-01-27T03:03:35.325Z,62.39
2023-01-27T03:06:01.820Z,61.63
2023-01-27T03:08:28.390Z,62.53
2023-01-27T03:10:55.939Z,62.60
2023-01-27T03:13:28.155Z,62.40
2023-01-27T03:16:14.573Z,62.72
2023-01-27T03:18:41.357Z,62.61
2023-01-27T03:21:07.998Z,62.68
2023-01-27T03:23:35.118Z,62.63
2023-01-27T03:26:06.169Z,63.01
2023-01-27T03:28:32.886Z,62.93
2023-01-27T03:31:07.388Z,62.59
2023-01-27T03:33:35.083Z,62.92
2023-01-27T03:36:21.612Z,62.69
2023-01-27T03:39:07.068Z,62.89
2023-01-27T03:41:53.044Z,63.06
2023-01-27T03:44:37.869Z,62.75
2023-01-27T03:47:04.378Z,62.89
2023-01-27T03:49:30.971Z,62.93
2023-01-27T03:51:57.581Z,62.81
2023-01-27T03:54:24.159Z,63.20
2023-01-27T03:56:50.696Z,63.10
2023-01-27T03:59:17.321Z,62.91
2023-01-27T04:01:44.281Z,62.85
2023-01-27T04:04:30.358Z,62.83
2023-01-27T04:07:02.831Z,62.99
2023-01-27T04:09:35.647Z,63.07
2023-01-27T04:12:05.520Z,63.09
2023-01-27T04:14:33.464Z,62.84
2023-01-27T04:17:03.502Z,63.26
2023-01-27T04:19:30.902Z,63.22
2023-01-27T04:21:58.725Z,63.25
2023-01-27T04:56:58.300Z,62.39
2023-01-27T04:59:25.340Z,62.60
2023-01-27T05:01:52.255Z,62.51
2023-01-27T05:04:18.746Z,62.82
2023-01-27T05:06:45.168Z,64.61
2023-01-27T05:09:11.816Z,67.34
2023-01-27T05:11:38.273Z,69.44
2023-01-27T05:14:04.715Z,70.87
2023-01-27T05:16:31.298Z,72.38
2023-01-27T05:18:57.801Z,73.24
2023-01-27T05:21:28.306Z,74.02
2023-01-27T05:23:54.885Z,74.36
2023-01-27T05:26:24.107Z,74.34
2023-01-27T05:28:52.591Z,74.19
2023-01-27T05:31:24.800Z,73.47
2023-01-27T05:33:53.099Z,70.71
2023-01-27T05:36:21.448Z,66.09
2023-01-27T05:38:48.257Z,62.28
2023-01-27T05:41:16.994Z,60.14
2023-01-27T05:43:45.690Z,59.10
2023-01-27T05:46:15.494Z,58.44
2023-01-27T05:48:46.525Z,58.05
2023-01-27T05:51:15.128Z,58.18
2023-01-27T05:53:42.254Z,57.76
2023-01-27T05:56:10.774Z,57.72
2023-01-27T05:58:38.346Z,57.90
2023-01-27T06:01:16.719Z,58.54
2023-01-27T06:03:45.055Z,58.27
2023-01-27T06:06:13.636Z,58.57
2023-01-27T06:08:40.649Z,58.26
2023-01-27T06:11:07.833Z,58.60
2023-01-27T06:13:39.027Z,59.04
2023-01-27T06:16:08.405Z,59.23
2023-01-27T06:18:35.676Z,59.09
2023-01-27T06:21:04.336Z,59.19
2023-01-27T06:23:31.214Z,59.72
2023-01-27T06:26:03.084Z,59.88
2023-01-27T06:28:30.177Z,59.87
2023-01-27T06:31:04.314Z,59.92
2023-01-27T06:33:30.762Z,60.36
2023-01-27T06:36:02.696Z,62.33
2023-01-27T06:38:29.177Z,65.63
2023-01-27T06:40:55.609Z,67.48
2023-01-27T06:43:22.173Z,68.90
2023-01-27T06:45:52.705Z,69.71
2023-01-27T06:48:23.113Z,70.38
2023-01-27T06:50:49.598Z,70.81
2023-01-27T06:53:16.150Z,69.60
2023-01-27T06:55:43.818Z,68.32
2023-01-27T06:58:14.573Z,68.00
2023-01-27T07:00:42.329Z,67.71
2023-01-27T07:03:11.413Z,66.46
2023-01-27T07:05:39.970Z,65.52
2023-01-27T07:08:06.685Z,63.57
2023-01-27T07:10:33.250Z,63.19
2023-01-27T07:13:18.955Z,61.75
2023-01-27T07:15:45.589Z,61.52
2023-01-27T07:18:13.870Z,58.90
2023-01-27T07:20:41.029Z,60.28
2023-01-27T07:23:07.819Z,60.40
2023-01-27T07:25:35.405Z,58.00
2023-01-27T07:28:03.315Z,57.36
2023-01-27T07:30:30.434Z,56.70
2023-01-27T07:33:09.966Z,56.98
2023-01-27T07:35:38.563Z,56.72
2023-01-27T07:38:07.031Z,56.45
2023-01-27T07:40:33.869Z,56.71
2023-01-27T07:43:01.082Z,57.74
2023-01-27T07:45:29.145Z,57.21
2023-01-27T07:48:08.887Z,57.86
2023-01-27T07:50:36.542Z,57.70
2023-01-27T07:53:04.731Z,57.94
2023-01-27T07:55:32.538Z,58.01
2023-01-27T07:57:59.165Z,58.42
2023-01-27T08:00:26.591Z,58.58
2023-01-27T08:02:54.371Z,58.69
2023-01-27T08:05:21.559Z,59.12
2023-01-27T08:07:48.229Z,58.90
2023-01-27T08:10:15.225Z,59.13
2023-01-27T08:12:43.519Z,59.60
2023-01-27T08:15:10.486Z,59.60
2023-01-27T08:17:37.289Z,59.75
2023-01-27T08:20:04.223Z,59.42
2023-01-27T08:22:31.301Z,60.13
2023-01-27T08:24:57.869Z,60.26
2023-01-27T08:27:24.570Z,60.35
2023-01-27T08:29:51.106Z,60.33
2023-01-27T08:32:17.650Z,60.23
2023-01-27T08:34:44.167Z,60.29
2023-01-27T08:37:10.693Z,60.51
2023-01-27T08:39:37.356Z,60.60
2023-01-27T08:42:03.921Z,60.92
2023-01-27T08:44:30.555Z,60.70
2023-01-27T08:46:57.070Z,60.78
2023-01-27T08:49:23.583Z,60.94
2023-01-27T08:51:50.073Z,61.03
2023-01-27T08:54:16.610Z,61.24
2023-01-27T08:56:43.153Z,61.23
2023-01-27T08:59:09.770Z,61.32
2023-01-27T09:01:36.285Z,61.46
2023-01-27T09:04:02.835Z,61.32
2023-01-27T09:06:29.369Z,61.31
2023-01-27T09:09:16.232Z,61.31
2023-01-27T09:11:45.303Z,61.54
2023-01-27T09:14:12.100Z,61.59
2023-01-27T09:16:38.645Z,60.89
2023-01-27T09:19:05.229Z,61.29
2023-01-27T09:21:31.950Z,61.17
2023-01-27T09:23:58.730Z,61.49
2023-01-27T09:26:25.360Z,60.70
2023-01-27T09:28:51.951Z,61.11
2023-01-27T09:31:18.533Z,61.52
2023-01-27T09:33:45.335Z,61.62
2023-01-27T09:36:14.781Z,60.86
2023-01-27T09:38:45.678Z,61.06
2023-01-27T09:41:21.159Z,61.50
2023-01-27T09:44:05.564Z,61.52
2023-01-27T09:46:59.549Z,61.49
2023-01-27T09:49:29.093Z,61.63
2023-01-27T09:52:15.899Z,61.14
2023-01-27T09:55:11.400Z,61.10
2023-01-27T09:58:12.251Z,61.16
2023-01-27T10:00:49.414Z,61.70
2023-01-27T10:04:02.075Z,61.19
2023-01-27T10:07:10.003Z,61.12
2023-01-27T10:09:59.838Z,61.73
2023-01-27T10:12:47.455Z,61.68
2023-01-27T10:15:39.637Z,61.74
2023-01-27T10:18:43.667Z,61.68
2023-01-27T10:21:37.921Z,61.42
2023-01-27T10:24:27.154Z,61.96
2023-01-27T10:27:04.496Z,61.68
2023-01-27T10:29:42.944Z,61.18
2023-01-27T10:32:22.847Z,61.59
2023-01-27T10:35:12.203Z,61.48
2023-01-27T10:37:49.267Z,61.85
2023-01-27T10:40:40.436Z,61.38
2023-01-27T10:43:12.952Z,61.54
2023-01-27T10:45:55.231Z,61.51
2023-01-27T10:48:52.656Z,61.72
2023-01-27T10:51:29.988Z,61.36
2023-01-27T10:53:59.736Z,60.87
2023-01-27T10:59:15.191Z,61.45
2023-01-27T11:02:06.891Z,61.38
2023-01-27T11:04:40.316Z,61.57
2023-01-27T11:07:07.222Z,61.57
2023-01-27T11:09:46.905Z,61.34
2023-01-27T11:12:15.389Z,61.40
2023-01-27T11:14:50.928Z,61.51
2023-01-27T11:17:38.702Z,61.14
2023-01-27T11:20:29.808Z,61.14
2023-01-27T11:22:59.372Z,61.52
2023-01-27T11:25:47.983Z,61.16
2023-01-27T11:28:31.366Z,61.13
2023-01-27T11:31:37.854Z,61.39
2023-01-27T11:34:12.205Z,61.11
2023-01-27T11:36:38.734Z,60.86
2023-01-27T11:39:09.370Z,60.85
2023-01-27T11:41:43.781Z,60.85
2023-01-27T11:44:19.506Z,60.62
2023-01-27T11:46:47.875Z,61.01
2023-01-27T11:49:21.941Z,60.98
2023-01-27T11:51:49.710Z,60.78
2023-01-27T11:54:22.292Z,61.13
2023-01-27T11:56:50.165Z,61.05
2023-01-27T11:59:19.594Z,60.90
2023-01-27T12:02:07.624Z,61.12
2023-01-27T12:05:01.688Z,61.09
2023-01-27T12:07:50.420Z,61.10
2023-01-27T12:10:31.395Z,61.16
2023-01-27T12:13:01.727Z,61.16
2023-01-27T12:15:30.989Z,61.04
2023-01-27T12:18:03.373Z,61.09
2023-01-27T12:20:32.860Z,61.30
2023-01-27T12:23:04.211Z,61.06
2023-01-27T12:25:44.932Z,61.38
2023-01-27T12:28:24.730Z,61.26
2023-01-27T12:30:55.822Z,61.31
2023-01-27T12:33:27.656Z,61.34
2023-01-27T12:35:59.152Z,61.47
2023-01-27T12:38:28.812Z,61.51
2023-01-27T12:41:02.569Z,61.23
2023-01-27T12:43:29.119Z,61.19
2023-01-27T12:46:12.140Z,61.32
2023-01-27T12:48:50.690Z,61.03
2023-01-27T12:51:21.338Z,61.36
2023-01-27T12:53:49.754Z,61.17
2023-01-27T12:56:20.558Z,61.07
2023-01-27T12:58:56.213Z,61.24
2023-01-27T13:01:38.446Z,60.99
2023-01-27T13:04:18.073Z,61.18
2023-01-27T13:07:15.951Z,61.13
2023-01-27T13:10:16.922Z,60.86
2023-01-27T13:12:51.667Z,61.20
2023-01-27T13:15:21.411Z,60.94
2023-01-27T13:17:50.976Z,60.72
2023-01-27T13:20:17.661Z,60.86
2023-01-27T13:22:48.605Z,60.99
2023-01-27T13:25:23.661Z,60.83
2023-01-27T13:27:54.758Z,60.82
2023-01-27T13:30:38.516Z,60.56
2023-01-27T13:33:26.770Z,60.40
2023-01-27T13:36:01.806Z,60.68
2023-01-27T13:38:38.491Z,60.76
2023-01-27T13:41:11.293Z,60.29
2023-01-27T13:43:41.585Z,60.38
2023-01-27T13:46:30.668Z,60.79
2023-01-27T13:49:03.554Z,60.46
2023-01-27T13:51:33.274Z,60.56
2023-01-27T13:54:02.650Z,60.79
2023-01-27T13:57:02.656Z,60.59
2023-01-27T13:59:41.001Z,60.52
2023-01-27T14:02:28.282Z,60.63
2023-01-27T14:04:54.980Z,60.79
2023-01-27T14:07:26.644Z,60.07
2023-01-27T14:10:13.819Z,60.69
2023-01-27T14:12:52.952Z,60.25
2023-01-27T14:15:43.161Z,60.43
2023-01-27T14:18:45.835Z,60.52
2023-01-27T14:22:00.873Z,60.42
2023-01-27T14:24:45.233Z,60.05
2023-01-27T14:27:17.876Z,60.17
2023-01-27T14:29:54.312Z,60.36
2023-01-27T14:32:26.641Z,59.80
2023-01-27T14:35:06.695Z,59.49
2023-01-27T14:37:56.032Z,59.76
2023-01-27T14:40:28.272Z,59.10
2023-01-27T14:43:13.464Z,58.89
2023-01-27T14:45:53.738Z,59.21
2023-01-27T14:48:41.943Z,59.08
2023-01-27T14:51:34.845Z,59.06
2023-01-27T14:54:22.385Z,59.26
2023-01-27T14:57:10.449Z,59.14
2023-01-27T15:00:14.805Z,58.85
2023-01-27T15:03:03.221Z,59.06
2023-01-27T15:05:37.146Z,58.93
2023-01-27T15:08:18.406Z,59.32
2023-01-27T15:10:57.412Z,59.13
2023-01-27T15:13:58.977Z,59.34
2023-01-27T15:17:13.913Z,59.18
2023-01-27T15:19:49.299Z,58.86
2023-01-27T15:22:22.069Z,59.25
2023-01-27T15:25:03.519Z,59.47
2023-01-27T15:27:30.666Z,59.53
2023-01-27T15:30:20.123Z,59.49
2023-01-27T15:32:46.967Z,59.35
2023-01-27T15:35:22.648Z,59.33
2023-01-27T15:38:05.942Z,59.16
2023-01-27T15:40:54.169Z,59.32
2023-01-27T15:43:23.508Z,59.74
2023-01-27T15:45:55.877Z,64.68
2023-01-27T15:48:34.424Z,68.38
2023-01-27T15:51:05.612Z,70.81
2023-01-27T15:53:39.602Z,71.74
2023-01-27T15:56:06.785Z,70.96
2023-01-27T15:58:42.369Z,66.90
2023-01-27T16:01:22.196Z,62.69
2023-01-27T16:03:50.403Z,60.54
2023-01-27T16:06:22.523Z,58.74
2023-01-27T16:08:53.284Z,57.14
2023-01-27T16:11:28.967Z,57.19
2023-01-27T16:14:14.471Z,57.04
2023-01-27T16:16:50.285Z,56.68
2023-01-27T16:19:26.710Z,56.13
2023-01-27T16:22:02.747Z,55.97
2023-01-27T16:24:42.972Z,55.66
2023-01-27T16:27:21.405Z,55.76
2023-01-27T16:29:57.304Z,55.50
2023-01-27T16:32:31.113Z,55.61
2023-01-27T16:35:05.423Z,55.85
2023-01-27T16:37:38.682Z,56.09
2023-01-27T16:40:09.342Z,55.79
2023-01-27T16:42:54.195Z,56.61
2023-01-27T16:45:23.810Z,56.16
2023-01-27T16:47:59.207Z,56.35
2023-01-27T16:50:39.713Z,56.80
2023-01-27T16:53:14.293Z,56.47
2023-01-27T16:55:41.201Z,56.30
2023-01-27T16:58:21.520Z,56.66
2023-01-27T17:00:51.403Z,56.35
2023-01-27T17:03:25.449Z,56.48
2023-01-27T17:05:53.464Z,56.44
2023-01-27T17:08:27.875Z,56.39
2023-01-27T17:10:57.387Z,56.23
2023-01-27T17:13:36.725Z,56.52
2023-01-27T17:16:06.647Z,55.91
2023-01-27T17:18:50.892Z,55.96
2023-01-27T17:21:32.456Z,56.34
2023-01-27T17:24:28.128Z,56.11
2023-01-27T17:27:18.324Z,56.51
2023-01-27T17:29:47.166Z,56.05
2023-01-27T17:32:24.892Z,56.48
2023-01-27T17:34:55.590Z,55.85
2023-01-27T17:37:23.793Z,55.72
2023-01-27T17:39:59.713Z,56.42
2023-01-27T17:42:30.260Z,56.13
2023-01-27T17:45:22.786Z,56.36
2023-01-27T17:47:50.061Z,55.75
2023-01-27T17:50:25.574Z,56.21
2023-01-27T17:52:54.790Z,55.82
2023-01-27T17:55:24.371Z,56.21
2023-01-27T17:57:59.683Z,56.05
2023-01-27T18:00:30.224Z,56.08
2023-01-27T18:03:02.541Z,56.50
2023-01-27T18:05:36.638Z,56.57
2023-01-27T18:08:05.167Z,56.81
2023-01-27T18:10:34.424Z,56.92
2023-01-27T18:13:19.522Z,57.22
2023-01-27T18:16:04.003Z,57.09
2023-01-27T18:18:33.007Z,56.28
2023-01-27T18:21:08.439Z,56.46
2023-01-27T18:23:45.889Z,56.72
2023-01-27T18:26:26.031Z,56.64
2023-01-27T18:29:13.300Z,56.74
2023-01-27T18:31:58.056Z,56.39
2023-01-27T18:34:34.251Z,56.06
2023-01-27T18:37:21.006Z,56.01
2023-01-27T18:39:47.737Z,56.06
2023-01-27T18:42:15.579Z,56.79
2023-01-27T18:44:42.294Z,56.46
2023-01-27T18:47:19.334Z,56.61
2023-01-27T18:49:53.556Z,56.24
2023-01-27T18:52:20.197Z,55.99
2023-01-27T18:54:46.848Z,56.45
2023-01-27T18:57:13.501Z,56.16
2023-01-27T18:59:40.193Z,56.46
2023-01-27T19:02:15.842Z,56.72
2023-01-27T19:04:43.478Z,56.73
2023-01-27T19:07:15.968Z,56.91
2023-01-27T19:09:46.764Z,56.52
2023-01-27T19:12:13.415Z,56.73
2023-01-27T19:14:42.046Z,56.60
2023-01-27T19:17:27.547Z,56.70
2023-01-27T19:19:55.183Z,56.25
2023-01-27T19:22:21.793Z,56.15
2023-01-27T19:24:50.649Z,56.34
2023-01-27T19:27:19.225Z,56.00
2023-01-27T19:29:45.924Z,56.09
2023-01-27T19:32:15.333Z,55.62
2023-01-27T19:34:43.084Z,55.67
2023-01-27T19:37:18.576Z,56.33
2023-01-27T19:39:46.608Z,55.93
2023-01-27T19:42:15.489Z,55.51
2023-01-27T19:44:42.297Z,55.52
2023-01-27T19:47:12.912Z,56.21
2023-01-27T19:49:40.194Z,55.27
2023-01-27T19:52:06.895Z,55.54
2023-01-27T19:54:34.889Z,55.23
2023-01-27T19:57:01.711Z,55.23
2023-01-27T19:59:28.793Z,56.18
2023-01-27T20:01:56.822Z,55.11
2023-01-27T20:04:23.798Z,54.86
2023-01-27T20:06:50.525Z,55.01
2023-01-27T20:09:17.241Z,54.90
2023-01-27T20:11:44.531Z,54.80
2023-01-27T20:14:14.296Z,54.99
2023-01-27T20:16:42.060Z,54.87
2023-01-27T20:19:09.080Z,54.59
2023-01-27T20:21:35.811Z,54.65
2023-01-27T20:24:02.577Z,55.89
2023-01-27T20:26:32.627Z,54.84
2023-01-27T20:28:59.913Z,54.73
2023-01-27T20:31:26.854Z,54.77
2023-01-27T20:33:53.506Z,54.54
2023-01-27T20:36:22.542Z,55.03
2023-01-27T20:38:51.515Z,54.66
2023-01-27T20:41:23.191Z,54.79
2023-01-27T20:43:55.574Z,54.82
2023-01-27T20:46:22.287Z,54.56
2023-01-27T20:48:48.775Z,55.83
2023-01-27T20:51:16.868Z,54.78
2023-01-27T20:53:48.265Z,54.84
2023-01-27T20:56:17.589Z,54.59
2023-01-27T20:58:44.859Z,54.56
2023-01-27T21:01:14.208Z,54.49
2023-01-27T21:03:41.462Z,54.72
2023-01-27T21:06:10.420Z,55.01
2023-01-27T21:08:37.489Z,54.75
2023-01-27T21:11:06.434Z,54.76
2023-01-27T21:13:33.566Z,54.63
2023-01-27T21:16:02.082Z,54.32
2023-01-27T21:18:29.012Z,54.66
2023-01-27T21:20:59.574Z,54.36
2023-01-27T21:23:28.129Z,54.19
2023-01-27T21:25:55.202Z,54.09
2023-01-27T21:28:22.255Z,54.44
2023-01-27T21:30:49.113Z,54.12
2023-01-27T21:33:15.736Z,54.09
2023-01-27T21:35:42.383Z,54.00
2023-01-27T21:38:08.948Z,54.04
2023-01-27T21:40:35.758Z,54.36
2023-01-27T21:43:20.551Z,55.40
2023-01-27T21:45:58.259Z,54.45
2023-01-27T21:48:24.891Z,53.93
2023-01-27T21:50:51.767Z,54.05
2023-01-27T21:53:18.236Z,55.00
2023-01-27T21:55:44.906Z,53.89
2023-01-27T21:58:11.532Z,53.94
2023-01-27T22:00:38.131Z,54.06
2023-01-27T22:03:04.654Z,54.01
2023-01-27T22:05:33.119Z,53.89
2023-01-27T22:08:02.075Z,53.92
2023-01-27T22:10:30.365Z,54.00
2023-01-27T22:13:08.299Z,54.00
2023-01-27T22:15:35.095Z,54.09
2023-01-27T22:18:01.572Z,54.82
2023-01-27T22:20:32.013Z,53.81
2023-01-27T22:22:58.710Z,53.55
2023-01-27T22:25:27.486Z,54.01
2023-01-27T22:27:55.667Z,54.01
2023-01-27T22:30:22.288Z,53.92
2023-01-27T22:32:49.812Z,53.72
2023-01-27T22:35:18.292Z,53.62
2023-01-27T22:37:45.627Z,53.87
2023-01-27T22:40:13.465Z,53.73
2023-01-27T22:42:40.263Z,53.91
2023-01-27T22:45:10.125Z,55.04
2023-01-27T22:47:36.913Z,53.62
2023-01-27T22:50:03.398Z,55.10
2023-01-27T22:52:30.121Z,53.86
2023-01-27T22:54:56.546Z,55.07
2023-01-27T22:57:25.060Z,53.92
2023-01-27T22:59:51.571Z,53.32
2023-01-27T23:02:18.320Z,53.46
2023-01-27T23:04:44.887Z,54.79
2023-01-27T23:07:11.421Z,53.94
2023-01-27T23:09:38.015Z,53.96
2023-01-27T23:12:04.870Z,53.78
2023-01-27T23:14:31.353Z,54.76
2023-01-27T23:16:58.594Z,54.09
2023-01-27T23:19:25.266Z,53.81
2023-01-27T23:21:52.038Z,53.57
2023-01-27T23:24:18.478Z,54.89
2023-01-27T23:26:45.212Z,54.12
2023-01-27T23:29:24.174Z,54.15
2023-01-27T23:31:52.118Z,53.99
2023-01-27T23:34:18.974Z,54.03
2023-01-27T23:36:45.462Z,55.04
2023-01-27T23:39:16.507Z,53.96
2023-01-27T23:41:43.105Z,54.05
2023-01-27T23:44:11.330Z,53.83
2023-01-27T23:46:38.095Z,54.19
2023-01-27T23:49:04.584Z,54.73
2023-01-27T23:51:31.227Z,54.50
2023-01-27T23:53:57.776Z,54.10
2023-01-27T23:56:24.329Z,54.57
2023-01-27T23:58:50.880Z,54.16
